createdAt,value
2017-10-28T00:00:34.571Z,0
2017-10-28T00:01:44.798Z,0
2017-10-28T00:02:54.781Z,0
2017-10-28T00:04:05.067Z,0
2017-10-28T00:05:15.030Z,0
2017-10-28T00:06:25.326Z,0
2017-10-28T00:07:35.926Z,0
2017-10-28T00:08:45.895Z,0
2017-10-28T00:09:56.191Z,0
2017-10-28T00:11:06.484Z,0
2017-10-28T00:12:16.125Z,0
2017-10-28T00:13:26.334Z,0
2017-10-28T00:14:36.290Z,0
2017-10-28T00:15:46.261Z,0
2017-10-28T00:16:56.246Z,0
2017-10-28T00:18:06.543Z,0
2017-10-28T00:19:17.091Z,0
2017-10-28T00:20:27.071Z,0
2017-10-28T00:21:37.366Z,0
2017-10-28T00:22:47.655Z,0
2017-10-28T00:23:57.953Z,0
2017-10-28T00:25:08.503Z,0
2017-10-28T00:26:18.498Z,0
2017-10-28T00:27:28.786Z,0
2017-10-28T00:28:39.079Z,0
2017-10-28T00:29:49.374Z,0
2017-10-28T00:30:59.593Z,0
2017-10-28T00:32:09.890Z,0
2017-10-28T00:33:19.859Z,0
2017-10-28T00:34:30.188Z,0
2017-10-28T00:35:40.154Z,0
2017-10-28T00:36:50.370Z,0
2017-10-28T00:38:00.653Z,0
2017-10-28T00:39:10.939Z,0
2017-10-28T00:40:21.253Z,0
2017-10-28T00:41:31.544Z,0
2017-10-28T00:42:42.080Z,0
2017-10-28T00:43:52.366Z,0
2017-10-28T00:45:02.655Z,0
2017-10-28T00:46:12.964Z,0
2017-10-28T00:47:22.971Z,0
2017-10-28T00:48:33.513Z,0
2017-10-28T00:49:43.507Z,0
2017-10-28T00:50:53.809Z,0
2017-10-28T00:52:04.098Z,0
2017-10-28T00:53:14.385Z,0
2017-10-28T00:54:24.610Z,0
2017-10-28T00:55:34.895Z,0
2017-10-28T00:56:45.184Z,0
2017-10-28T00:57:55.474Z,0
2017-10-28T00:59:05.777Z,0
2017-10-28T01:00:16.339Z,0
2017-10-28T01:01:26.644Z,0
2017-10-28T01:02:36.610Z,0
2017-10-28T01:03:46.924Z,0
2017-10-28T01:04:57.245Z,0
2017-10-28T01:06:07.801Z,0
2017-10-28T01:07:17.772Z,0
2017-10-28T01:08:28.052Z,0
2017-10-28T01:09:38.351Z,0
2017-10-28T01:10:48.891Z,0
2017-10-28T01:11:59.122Z,0
2017-10-28T01:13:09.418Z,0
2017-10-28T01:14:19.378Z,0
2017-10-28T01:15:29.345Z,0
2017-10-28T01:16:39.631Z,0
2017-10-28T01:17:50.188Z,0
2017-10-28T01:19:00.478Z,0
2017-10-28T01:20:10.768Z,0
2017-10-28T01:21:20.732Z,0
2017-10-28T01:22:31.032Z,0
2017-10-28T01:23:41.259Z,0
2017-10-28T01:24:51.565Z,0
2017-10-28T01:26:01.851Z,0
2017-10-28T01:27:11.816Z,0
2017-10-28T01:28:22.107Z,0
2017-10-28T01:29:32.321Z,0
2017-10-28T01:30:42.618Z,0
2017-10-28T01:31:52.906Z,0
2017-10-28T01:33:02.876Z,0
2017-10-28T01:34:13.159Z,0
2017-10-28T01:35:23.706Z,0
2017-10-28T01:36:33.685Z,0
2017-10-28T01:37:43.993Z,0
2017-10-28T01:38:54.285Z,0
2017-10-28T01:40:04.264Z,0
2017-10-28T01:41:14.803Z,0
2017-10-28T01:42:24.454Z,0
2017-10-28T01:43:34.745Z,0
2017-10-28T01:44:45.046Z,0
2017-10-28T01:45:55.338Z,0
2017-10-28T01:47:05.569Z,0
2017-10-28T01:48:15.871Z,0
2017-10-28T01:49:25.834Z,0
2017-10-28T01:50:35.797Z,0
2017-10-28T01:51:45.771Z,0
2017-10-28T01:52:55.657Z,0
2017-10-28T01:54:05.943Z,0
2017-10-28T01:55:16.233Z,0
2017-10-28T01:56:26.216Z,0
2017-10-28T01:57:36.511Z,0
2017-10-28T01:58:46.725Z,0
2017-10-28T01:59:57.009Z,0
2017-10-28T02:01:07.324Z,0
2017-10-28T02:02:17.635Z,0
2017-10-28T02:03:27.928Z,0
2017-10-28T02:04:38.476Z,0
2017-10-28T02:05:48.771Z,0
2017-10-28T02:06:58.740Z,0
2017-10-28T02:08:09.061Z,0
2017-10-28T02:09:19.029Z,0
2017-10-28T02:10:29.297Z,0
2017-10-28T02:11:39.609Z,0
2017-10-28T02:12:49.913Z,0
2017-10-28T02:14:00.217Z,0
2017-10-28T02:15:10.524Z,0
2017-10-28T02:16:20.407Z,0
2017-10-28T02:17:30.382Z,0
2017-10-28T02:18:40.676Z,0
2017-10-28T02:19:50.969Z,0
2017-10-28T02:21:01.278Z,0
2017-10-28T02:22:11.824Z,0
2017-10-28T02:23:22.117Z,0
2017-10-28T02:24:31.763Z,0
2017-10-28T02:25:42.068Z,0
2017-10-28T02:26:52.028Z,0
2017-10-28T02:28:02.581Z,0
2017-10-28T02:29:12.560Z,0
2017-10-28T02:30:22.902Z,0
2017-10-28T02:31:33.202Z,0
2017-10-28T02:32:43.517Z,0
2017-10-28T02:33:54.059Z,0
2017-10-28T02:35:04.362Z,0
2017-10-28T02:36:14.659Z,0
2017-10-28T02:37:24.644Z,0
2017-10-28T02:38:34.941Z,0
2017-10-28T02:39:45.158Z,0
2017-10-28T02:40:55.456Z,0
2017-10-28T02:42:05.756Z,0
2017-10-28T02:43:16.086Z,0
2017-10-28T02:44:26.386Z,0
2017-10-28T02:45:36.598Z,0
2017-10-28T02:46:46.595Z,0
2017-10-28T02:47:56.898Z,0
2017-10-28T02:49:06.861Z,0
2017-10-28T02:50:17.146Z,0
2017-10-28T02:51:27.393Z,0
2017-10-28T02:52:37.705Z,0
2017-10-28T02:53:48.024Z,0
2017-10-28T02:54:57.981Z,0
2017-10-28T02:56:08.293Z,0
2017-10-28T02:57:18.506Z,0
2017-10-28T02:58:28.810Z,0
2017-10-28T02:59:39.103Z,0
2017-10-28T03:00:49.076Z,0
2017-10-28T03:01:59.066Z,0
2017-10-28T03:03:09.276Z,0
2017-10-28T03:04:19.571Z,0
2017-10-28T03:05:29.871Z,0
2017-10-28T03:06:40.187Z,0
2017-10-28T03:07:50.152Z,0
2017-10-28T03:09:00.746Z,0
2017-10-28T03:10:10.394Z,0
2017-10-28T03:11:20.351Z,0
2017-10-28T03:12:29.671Z,0
2017-10-28T03:13:39.634Z,0
2017-10-28T03:14:50.170Z,0
2017-10-28T03:16:00.128Z,0
2017-10-28T03:17:10.434Z,0
2017-10-28T03:18:20.718Z,0
2017-10-28T03:19:31.009Z,0
2017-10-28T03:20:41.555Z,0
2017-10-28T03:21:51.849Z,0
2017-10-28T03:23:02.144Z,0
2017-10-28T03:24:12.429Z,0
2017-10-28T03:25:22.077Z,0
2017-10-28T03:26:32.602Z,0
2017-10-28T03:27:42.899Z,0
2017-10-28T03:28:52.862Z,0
2017-10-28T03:30:03.159Z,0
2017-10-28T03:31:13.479Z,0
2017-10-28T03:32:24.085Z,0
2017-10-28T03:33:34.074Z,0
2017-10-28T03:34:43.724Z,0
2017-10-28T03:35:54.026Z,0
2017-10-28T03:37:04.317Z,0
2017-10-28T03:38:14.852Z,0
2017-10-28T03:39:25.137Z,0
2017-10-28T03:40:35.089Z,0
2017-10-28T03:41:44.734Z,0
2017-10-28T03:42:55.015Z,0
2017-10-28T03:44:05.230Z,0
2017-10-28T03:45:15.196Z,0
2017-10-28T03:46:25.482Z,0
2017-10-28T03:47:35.780Z,0
2017-10-28T03:48:46.070Z,0
2017-10-28T03:49:56.283Z,0
2017-10-28T03:51:06.562Z,0
2017-10-28T03:52:16.878Z,0
2017-10-28T03:53:27.191Z,0
2017-10-28T03:54:37.162Z,0
2017-10-28T03:55:47.717Z,0
2017-10-28T03:56:57.677Z,0
2017-10-28T03:58:07.973Z,0
2017-10-28T03:59:17.935Z,0
2017-10-28T04:00:28.228Z,0
2017-10-28T04:01:38.766Z,0
2017-10-28T04:02:49.060Z,0
2017-10-28T04:03:59.361Z,0
2017-10-28T04:05:09.645Z,0
2017-10-28T04:06:19.633Z,0
2017-10-28T04:07:30.183Z,0
2017-10-28T04:08:40.170Z,0
2017-10-28T04:09:50.460Z,0
2017-10-28T04:11:00.766Z,0
2017-10-28T04:12:11.061Z,0
2017-10-28T04:13:21.603Z,0
2017-10-28T04:14:31.887Z,0
2017-10-28T04:15:42.196Z,0
2017-10-28T04:16:52.483Z,0
2017-10-28T04:18:02.776Z,0
2017-10-28T04:19:12.668Z,0
2017-10-28T04:20:22.959Z,0
2017-10-28T04:21:33.249Z,0
2017-10-28T04:22:42.907Z,0
2017-10-28T04:23:52.882Z,0
2017-10-28T04:25:03.441Z,0
2017-10-28T04:26:13.738Z,0
2017-10-28T04:27:23.712Z,0
2017-10-28T04:28:34.234Z,0
2017-10-28T04:29:44.528Z,0
2017-10-28T04:30:54.460Z,0
2017-10-28T04:32:04.758Z,0
2017-10-28T04:33:14.727Z,0
2017-10-28T04:34:24.695Z,0
2017-10-28T04:35:34.985Z,0
2017-10-28T04:36:45.268Z,0
2017-10-28T04:37:55.554Z,0
2017-10-28T04:39:05.550Z,0
2017-10-28T04:40:15.851Z,0
2017-10-28T04:41:26.154Z,0
2017-10-28T04:42:36.432Z,0
2017-10-28T04:43:46.388Z,0
2017-10-28T04:44:56.689Z,0
2017-10-28T04:46:06.987Z,0
2017-10-28T04:47:16.954Z,0
2017-10-28T04:48:27.493Z,0
2017-10-28T04:49:37.130Z,0
2017-10-28T04:50:47.419Z,0
2017-10-28T04:51:57.724Z,0
2017-10-28T04:53:08.015Z,0
2017-10-28T04:54:18.555Z,0
2017-10-28T04:55:28.835Z,0
2017-10-28T04:56:38.812Z,0
2017-10-28T04:57:49.110Z,0
2017-10-28T04:58:59.401Z,0
2017-10-28T05:00:09.936Z,0
2017-10-28T05:01:19.913Z,0
2017-10-28T05:02:30.199Z,0
2017-10-28T05:03:40.507Z,0
2017-10-28T05:04:50.829Z,0
2017-10-28T05:06:01.366Z,0
2017-10-28T05:07:11.670Z,0
2017-10-28T05:08:21.643Z,0
2017-10-28T05:09:31.940Z,0
2017-10-28T05:10:42.236Z,0
2017-10-28T05:11:52.452Z,0
2017-10-28T05:13:02.734Z,0
2017-10-28T05:14:13.076Z,0
2017-10-28T05:15:23.365Z,0
2017-10-28T05:16:33.657Z,0
2017-10-28T05:17:43.881Z,0
2017-10-28T05:18:53.845Z,0
2017-10-28T05:20:04.134Z,0
2017-10-28T05:21:14.439Z,0
2017-10-28T05:22:24.082Z,0
2017-10-28T05:23:34.637Z,0
2017-10-28T05:24:44.930Z,0
2017-10-28T05:25:54.909Z,4
2017-10-28T05:27:05.205Z,4
2017-10-28T05:28:15.170Z,4
2017-10-28T05:29:25.735Z,4
2017-10-28T05:30:36.024Z,4
2017-10-28T05:31:46.322Z,8
2017-10-28T05:32:56.289Z,12
2017-10-28T05:34:06.590Z,12
2017-10-28T05:35:17.133Z,12
2017-10-28T05:36:27.104Z,20
2017-10-28T05:37:37.082Z,20
2017-10-28T05:38:47.374Z,20
2017-10-28T05:39:57.660Z,24
2017-10-28T05:41:08.243Z,40
2017-10-28T05:42:18.526Z,48
2017-10-28T05:43:28.821Z,56
2017-10-28T05:44:38.165Z,44
2017-10-28T05:45:48.453Z,52
2017-10-28T05:46:58.988Z,72
2017-10-28T05:48:08.951Z,84
2017-10-28T05:49:19.242Z,96
2017-10-28T05:50:29.204Z,100
2017-10-28T05:51:39.165Z,116
2017-10-28T05:52:49.052Z,124
2017-10-28T05:53:59.340Z,176
2017-10-28T05:55:09.634Z,208
2017-10-28T05:56:19.627Z,244
2017-10-28T05:57:29.591Z,268
2017-10-28T05:58:39.811Z,276
2017-10-28T05:59:50.093Z,308
2017-10-28T06:01:00.410Z,324
2017-10-28T06:02:10.393Z,384
2017-10-28T06:03:20.379Z,356
2017-10-28T06:04:30.959Z,336
2017-10-28T06:05:41.263Z,456
2017-10-28T06:06:51.563Z,456
2017-10-28T06:08:01.855Z,468
2017-10-28T06:09:12.162Z,492
2017-10-28T06:10:22.105Z,464
2017-10-28T06:11:32.395Z,568
2017-10-28T06:12:42.377Z,584
2017-10-28T06:13:52.675Z,560
2017-10-28T06:15:02.642Z,708
2017-10-28T06:16:12.870Z,672
2017-10-28T06:17:22.840Z,764
2017-10-28T06:18:32.481Z,768
2017-10-28T06:19:42.124Z,888
2017-10-28T06:20:52.444Z,980
2017-10-28T06:22:02.990Z,1024
2017-10-28T06:23:13.273Z,1064
2017-10-28T06:24:23.577Z,1060
2017-10-28T06:25:33.904Z,1376
2017-10-28T06:26:43.878Z,1524
2017-10-28T06:27:54.430Z,1768
2017-10-28T06:29:04.399Z,1696
2017-10-28T06:30:14.382Z,1932
2017-10-28T06:31:24.719Z,1852
2017-10-28T06:32:35.009Z,1764
2017-10-28T06:33:45.547Z,2124
2017-10-28T06:34:55.842Z,2404
2017-10-28T06:36:06.194Z,2272
2017-10-28T06:37:16.485Z,2204
2017-10-28T06:38:26.784Z,2416
2017-10-28T06:39:37.008Z,2576
2017-10-28T06:40:47.309Z,2556
2017-10-28T06:41:57.630Z,2768
2017-10-28T06:43:07.269Z,2672
2017-10-28T06:44:17.610Z,2144
2017-10-28T06:45:28.174Z,2272
2017-10-28T06:46:38.494Z,2368
2017-10-28T06:47:48.785Z,3188
2017-10-28T06:48:58.752Z,3276
2017-10-28T06:50:08.713Z,3268
2017-10-28T06:51:19.260Z,2896
2017-10-28T06:52:29.558Z,3216
2017-10-28T06:53:39.188Z,3532
2017-10-28T06:54:49.476Z,3952
2017-10-28T06:55:59.435Z,4920
2017-10-28T06:57:09.984Z,5124
2017-10-28T06:58:20.279Z,5128
2017-10-28T06:59:30.573Z,4704
2017-10-28T07:00:40.872Z,4908
2017-10-28T07:01:51.182Z,3720
2017-10-28T07:03:01.798Z,3316
2017-10-28T07:04:12.095Z,2588
2017-10-28T07:05:22.423Z,2364
2017-10-28T07:06:32.390Z,2600
2017-10-28T07:07:42.688Z,3084
2017-10-28T07:08:53.237Z,3728
2017-10-28T07:10:03.547Z,3708
2017-10-28T07:11:13.187Z,3332
2017-10-28T07:12:23.479Z,3060
2017-10-28T07:13:33.125Z,2820
2017-10-28T07:14:43.677Z,2204
2017-10-28T07:15:53.972Z,2416
2017-10-28T07:17:03.964Z,2416
2017-10-28T07:18:13.935Z,2988
2017-10-28T07:19:23.908Z,3232
2017-10-28T07:20:34.477Z,2736
2017-10-28T07:21:44.777Z,2760
2017-10-28T07:22:55.068Z,2560
2017-10-28T07:24:05.353Z,3072
2017-10-28T07:25:15.640Z,2976
2017-10-28T07:26:25.844Z,2076
2017-10-28T07:27:36.130Z,2876
2017-10-28T07:28:46.111Z,3644
2017-10-28T07:29:56.427Z,3612
2017-10-28T07:31:06.740Z,3124
2017-10-28T07:32:17.294Z,3436
2017-10-28T07:33:27.264Z,4372
2017-10-28T07:34:37.557Z,3660
2017-10-28T07:35:47.875Z,3848
2017-10-28T07:36:58.184Z,3356
2017-10-28T07:38:08.734Z,4120
2017-10-28T07:39:18.382Z,5028
2017-10-28T07:40:28.684Z,4896
2017-10-28T07:41:38.977Z,5188
2017-10-28T07:42:48.939Z,5692
2017-10-28T07:43:59.523Z,7092
2017-10-28T07:45:09.822Z,7660
2017-10-28T07:46:20.117Z,7520
2017-10-28T07:47:30.100Z,5784
2017-10-28T07:48:40.403Z,4928
2017-10-28T07:49:50.678Z,5712
2017-10-28T07:51:00.986Z,6936
2017-10-28T07:52:11.278Z,8308
2017-10-28T07:53:21.243Z,8412
2017-10-28T07:54:31.545Z,8260
2017-10-28T07:55:42.142Z,8368
2017-10-28T07:56:52.432Z,7840
2017-10-28T07:58:02.399Z,6292
2017-10-28T07:59:12.716Z,3664
2017-10-28T08:00:22.056Z,4144
2017-10-28T08:01:32.615Z,5528
2017-10-28T08:02:42.933Z,6032
2017-10-28T08:03:53.241Z,5884
2017-10-28T08:05:03.529Z,6676
2017-10-28T08:06:13.820Z,6932
2017-10-28T08:07:24.361Z,5376
2017-10-28T08:08:34.334Z,4464
2017-10-28T08:09:44.631Z,5136
2017-10-28T08:10:54.589Z,7304
2017-10-28T08:12:04.902Z,6900
2017-10-28T08:13:14.860Z,6272
2017-10-28T08:14:24.503Z,5184
2017-10-28T08:15:34.811Z,5352
2017-10-28T08:16:45.116Z,3952
2017-10-28T08:17:55.402Z,3732
2017-10-28T08:19:05.953Z,2824
2017-10-28T08:20:16.240Z,2948
2017-10-28T08:21:26.199Z,3624
2017-10-28T08:22:36.487Z,3820
2017-10-28T08:23:46.468Z,3716
2017-10-28T08:24:56.676Z,3324
2017-10-28T08:26:06.674Z,2776
2017-10-28T08:27:16.666Z,2680
2017-10-28T08:28:26.970Z,2476
2017-10-28T08:29:37.269Z,2920
2017-10-28T08:30:47.812Z,2984
2017-10-28T08:31:57.776Z,2012
2017-10-28T08:33:07.749Z,1752
2017-10-28T08:34:18.057Z,1976
2017-10-28T08:35:28.341Z,2472
2017-10-28T08:36:38.901Z,4216
2017-10-28T08:37:48.886Z,4276
2017-10-28T08:38:59.182Z,5104
2017-10-28T08:40:09.497Z,6584
2017-10-28T08:41:19.787Z,6920
2017-10-28T08:42:30.333Z,6340
2017-10-28T08:43:40.307Z,7080
2017-10-28T08:44:50.598Z,6784
2017-10-28T08:46:00.580Z,5764
2017-10-28T08:47:10.562Z,6548
2017-10-28T08:48:20.773Z,5224
2017-10-28T08:49:30.754Z,4836
2017-10-28T08:50:40.725Z,4960
2017-10-28T08:51:50.698Z,6440
2017-10-28T08:53:00.665Z,7164
2017-10-28T08:54:10.913Z,8320
2017-10-28T08:55:20.891Z,6596
2017-10-28T08:56:31.181Z,6168
2017-10-28T08:57:41.485Z,7648
2017-10-28T08:58:51.793Z,6592
2017-10-28T09:00:02.330Z,5296
2017-10-28T09:01:12.625Z,6348
2017-10-28T09:02:22.970Z,6112
2017-10-28T09:03:33.278Z,6680
2017-10-28T09:04:43.257Z,7704
2017-10-28T09:05:53.853Z,7800
2017-10-28T09:07:03.838Z,8144
2017-10-28T09:08:14.127Z,7188
2017-10-28T09:09:24.121Z,6688
2017-10-28T09:10:34.468Z,4240
2017-10-28T09:11:45.021Z,6976
2017-10-28T09:12:55.318Z,7748
2017-10-28T09:14:05.288Z,5580
2017-10-28T09:15:15.583Z,4976
2017-10-28T09:16:25.551Z,5188
2017-10-28T09:17:35.770Z,5836
2017-10-28T09:18:45.421Z,6892
2017-10-28T09:19:55.717Z,6848
2017-10-28T09:21:06.013Z,5792
2017-10-28T09:22:16.316Z,5100
2017-10-28T09:23:26.546Z,5076
2017-10-28T09:24:36.513Z,6320
2017-10-28T09:25:46.475Z,5680
2017-10-28T09:26:56.783Z,6564
2017-10-28T09:28:07.086Z,9556
2017-10-28T09:29:17.686Z,7420
2017-10-28T09:30:27.995Z,6616
2017-10-28T09:31:37.962Z,6664
2017-10-28T09:32:48.259Z,9684
2017-10-28T09:33:58.228Z,8068
2017-10-28T09:35:08.441Z,7144
2017-10-28T09:36:18.400Z,7944
2017-10-28T09:37:28.702Z,7804
2017-10-28T09:38:39.000Z,6636
2017-10-28T09:39:49.313Z,7500
2017-10-28T09:40:59.537Z,8092
2017-10-28T09:42:09.841Z,8144
2017-10-28T09:43:20.154Z,7920
2017-10-28T09:44:30.445Z,8008
2017-10-28T09:45:40.736Z,7360
2017-10-28T09:46:50.957Z,6456
2017-10-28T09:48:01.253Z,7132
2017-10-28T09:49:11.546Z,7724
2017-10-28T09:50:21.539Z,7160
2017-10-28T09:51:31.541Z,9484
2017-10-28T09:52:42.095Z,10924
2017-10-28T09:53:52.392Z,8968
2017-10-28T09:55:02.717Z,10112
2017-10-28T09:56:13.051Z,8428
2017-10-28T09:57:23.367Z,7600
2017-10-28T09:58:33.577Z,8548
2017-10-28T09:59:43.894Z,8324
2017-10-28T10:00:54.186Z,7764
2017-10-28T10:02:04.501Z,7648
2017-10-28T10:03:14.190Z,8084
2017-10-28T10:04:24.749Z,8432
2017-10-28T10:05:34.738Z,7776
2017-10-28T10:06:45.036Z,6608
2017-10-28T10:07:55.323Z,6112
2017-10-28T10:09:05.637Z,4564
2017-10-28T10:10:16.194Z,4068
2017-10-28T10:11:26.170Z,3664
2017-10-28T10:12:36.145Z,3076
2017-10-28T10:13:46.126Z,3072
2017-10-28T10:14:56.416Z,3416
2017-10-28T10:16:06.660Z,3344
2017-10-28T10:17:16.962Z,3692
2017-10-28T10:18:27.290Z,3724
2017-10-28T10:19:37.581Z,3324
2017-10-28T10:20:47.870Z,3272
2017-10-28T10:21:58.489Z,2880
2017-10-28T10:23:08.481Z,2856
2017-10-28T10:24:18.799Z,2812
2017-10-28T10:25:28.778Z,4048
2017-10-28T10:26:38.763Z,4964
2017-10-28T10:27:49.323Z,5148
2017-10-28T10:28:59.607Z,5132
2017-10-28T10:30:09.929Z,5132
2017-10-28T10:31:20.268Z,4956
2017-10-28T10:32:30.580Z,4248
2017-10-28T10:33:41.111Z,4092
2017-10-28T10:34:51.094Z,4276
2017-10-28T10:36:01.405Z,4228
2017-10-28T10:37:11.700Z,4132
2017-10-28T10:38:21.996Z,4188
2017-10-28T10:39:32.544Z,4128
2017-10-28T10:40:42.518Z,4008
2017-10-28T10:41:52.832Z,4428
2017-10-28T10:43:03.146Z,4972
2017-10-28T10:44:13.455Z,5632
2017-10-28T10:45:24.004Z,7436
2017-10-28T10:46:34.348Z,7568
2017-10-28T10:47:44.337Z,10596
2017-10-28T10:48:54.639Z,8588
2017-10-28T10:50:04.633Z,6324
2017-10-28T10:51:15.270Z,8688
2017-10-28T10:52:25.563Z,9044
2017-10-28T10:53:35.854Z,9308
2017-10-28T10:54:45.847Z,8380
2017-10-28T10:55:55.812Z,9452
2017-10-28T10:57:06.389Z,8128
2017-10-28T10:58:16.695Z,9020
2017-10-28T10:59:26.993Z,7572
2017-10-28T11:00:37.300Z,8596
2017-10-28T11:01:47.614Z,9044
2017-10-28T11:02:57.841Z,9996
2017-10-28T11:04:08.149Z,8652
2017-10-28T11:05:18.138Z,7856
2017-10-28T11:06:28.116Z,9732
2017-10-28T11:07:38.409Z,11956
2017-10-28T11:08:48.963Z,9228
2017-10-28T11:09:59.283Z,8172
2017-10-28T11:11:09.270Z,7244
2017-10-28T11:12:19.237Z,7468
2017-10-28T11:13:29.522Z,9096
2017-10-28T11:14:40.078Z,9468
2017-10-28T11:15:50.383Z,6544
2017-10-28T11:17:00.697Z,5148
2017-10-28T11:18:10.673Z,4620
2017-10-28T11:19:20.990Z,4320
2017-10-28T11:20:31.538Z,4572
2017-10-28T11:21:41.187Z,5216
2017-10-28T11:22:51.485Z,4868
2017-10-28T11:24:01.808Z,4740
2017-10-28T11:25:12.097Z,4320
2017-10-28T11:26:22.649Z,5872
2017-10-28T11:27:32.934Z,4808
2017-10-28T11:28:43.243Z,4112
2017-10-28T11:29:52.894Z,4176
2017-10-28T11:31:03.197Z,3596
2017-10-28T11:32:13.509Z,3540
2017-10-28T11:33:23.825Z,3460
2017-10-28T11:34:34.145Z,3844
2017-10-28T11:35:43.802Z,5140
2017-10-28T11:36:54.113Z,4556
2017-10-28T11:38:04.323Z,3868
2017-10-28T11:39:14.642Z,3280
2017-10-28T11:40:24.625Z,3636
2017-10-28T11:41:34.929Z,4644
2017-10-28T11:42:44.903Z,3612
2017-10-28T11:43:55.493Z,3856
2017-10-28T11:45:05.798Z,4352
2017-10-28T11:46:16.104Z,4532
2017-10-28T11:47:26.415Z,7648
2017-10-28T11:48:36.706Z,7520
2017-10-28T11:49:46.612Z,6812
2017-10-28T11:50:56.589Z,6260
2017-10-28T11:52:06.902Z,5704
2017-10-28T11:53:16.890Z,5804
2017-10-28T11:54:27.186Z,5864
2017-10-28T11:55:37.760Z,6600
2017-10-28T11:56:48.065Z,6108
2017-10-28T11:57:58.041Z,5556
2017-10-28T11:59:08.354Z,5684
2017-10-28T12:00:18.674Z,6148
2017-10-28T12:01:28.907Z,6216
2017-10-28T12:02:39.214Z,6808
2017-10-28T12:03:49.527Z,5212
2017-10-28T12:04:59.811Z,6624
2017-10-28T12:06:10.108Z,8228
2017-10-28T12:07:20.698Z,5696
2017-10-28T12:08:30.661Z,5260
2017-10-28T12:09:40.640Z,6084
2017-10-28T12:10:50.947Z,4976
2017-10-28T12:12:01.329Z,4740
2017-10-28T12:13:11.546Z,4672
2017-10-28T12:14:21.853Z,5352
2017-10-28T12:15:32.147Z,4820
2017-10-28T12:16:42.468Z,6740
2017-10-28T12:17:52.775Z,5276
2017-10-28T12:19:03.324Z,4436
2017-10-28T12:20:13.623Z,4412
2017-10-28T12:21:23.927Z,6092
2017-10-28T12:22:34.216Z,6788
2017-10-28T12:23:44.189Z,6400
2017-10-28T12:24:54.425Z,5352
2017-10-28T12:26:04.744Z,5864
2017-10-28T12:27:15.043Z,6512
2017-10-28T12:28:25.031Z,8000
2017-10-28T12:29:35.331Z,7924
2017-10-28T12:30:45.892Z,9008
2017-10-28T12:31:56.194Z,8580
2017-10-28T12:33:06.521Z,10688
2017-10-28T12:34:16.843Z,10396
2017-10-28T12:35:27.141Z,10856
2017-10-28T12:36:37.416Z,10404
2017-10-28T12:37:47.717Z,11372
2017-10-28T12:38:58.026Z,8456
2017-10-28T12:40:08.336Z,8240
2017-10-28T12:41:18.668Z,8004
2017-10-28T12:42:29.270Z,7184
2017-10-28T12:43:39.596Z,7552
2017-10-28T12:44:49.230Z,7688
2017-10-28T12:45:58.866Z,8148
2017-10-28T12:47:09.161Z,9576
2017-10-28T12:48:19.389Z,8964
2017-10-28T12:49:29.379Z,6684
2017-10-28T12:50:39.378Z,5436
2017-10-28T12:51:49.340Z,5328
2017-10-28T12:52:59.640Z,5384
2017-10-28T12:54:09.863Z,6188
2017-10-28T12:55:19.829Z,6788
2017-10-28T12:56:30.137Z,5344
2017-10-28T12:57:40.455Z,4968
2017-10-28T12:58:50.743Z,5688
2017-10-28T13:00:01.314Z,5296
2017-10-28T13:01:10.945Z,3756
2017-10-28T13:02:20.936Z,3132
2017-10-28T13:03:31.229Z,3288
2017-10-28T13:04:41.521Z,2988
2017-10-28T13:05:52.079Z,3400
2017-10-28T13:07:02.386Z,2944
2017-10-28T13:08:12.371Z,3440
2017-10-28T13:09:22.027Z,4444
2017-10-28T13:10:32.334Z,4440
2017-10-28T13:11:42.899Z,5304
2017-10-28T13:12:53.210Z,6112
2017-10-28T13:14:03.173Z,5404
2017-10-28T13:15:13.469Z,4032
2017-10-28T13:16:23.115Z,4008
2017-10-28T13:17:33.664Z,4200
2017-10-28T13:18:43.981Z,4408
2017-10-28T13:19:53.953Z,4932
2017-10-28T13:21:04.249Z,4380
2017-10-28T13:22:13.895Z,3584
2017-10-28T13:23:24.448Z,3164
2017-10-28T13:24:34.754Z,2536
2017-10-28T13:25:44.725Z,2544
2017-10-28T13:26:55.039Z,2760
2017-10-28T13:28:05.013Z,2904
2017-10-28T13:29:15.560Z,2492
2017-10-28T13:30:25.536Z,2524
2017-10-28T13:31:35.501Z,2308
2017-10-28T13:32:45.814Z,2496
2017-10-28T13:33:56.123Z,2288
2017-10-28T13:35:06.364Z,2392
2017-10-28T13:36:16.658Z,2304
2017-10-28T13:37:26.991Z,2472
2017-10-28T13:38:37.290Z,2408
2017-10-28T13:39:47.597Z,2264
2017-10-28T13:40:57.818Z,2348
2017-10-28T13:42:08.124Z,2212
2017-10-28T13:43:17.443Z,1912
2017-10-28T13:44:27.089Z,2108
2017-10-28T13:45:37.060Z,2148
2017-10-28T13:46:47.613Z,2012
2017-10-28T13:47:57.906Z,2048
2017-10-28T13:49:07.897Z,2048
2017-10-28T13:50:17.573Z,1852
2017-10-28T13:51:27.539Z,1664
2017-10-28T13:52:37.773Z,1456
2017-10-28T13:53:48.067Z,1456
2017-10-28T13:54:58.044Z,1444
2017-10-28T13:56:08.364Z,1436
2017-10-28T13:57:18.657Z,1552
2017-10-28T13:58:28.875Z,1676
2017-10-28T13:59:39.166Z,1636
2017-10-28T14:00:49.158Z,1608
2017-10-28T14:01:59.489Z,1784
2017-10-28T14:03:09.780Z,1684
2017-10-28T14:04:20.337Z,1912
2017-10-28T14:05:30.309Z,2240
2017-10-28T14:06:40.621Z,2104
2017-10-28T14:07:50.924Z,2008
2017-10-28T14:09:00.913Z,1880
2017-10-28T14:10:11.468Z,1804
2017-10-28T14:11:21.790Z,1748
2017-10-28T14:12:31.763Z,1780
2017-10-28T14:13:42.053Z,1880
2017-10-28T14:14:52.028Z,1916
2017-10-28T14:16:01.917Z,1980
2017-10-28T14:17:11.895Z,2048
2017-10-28T14:18:21.850Z,1744
2017-10-28T14:19:31.825Z,1704
2017-10-28T14:20:42.136Z,1768
2017-10-28T14:21:52.039Z,1396
2017-10-28T14:23:02.359Z,1436
2017-10-28T14:24:12.682Z,1480
2017-10-28T14:25:22.667Z,1368
2017-10-28T14:26:32.979Z,1160
2017-10-28T14:27:43.200Z,1228
2017-10-28T14:28:53.192Z,1104
2017-10-28T14:30:03.489Z,1088
2017-10-28T14:31:13.800Z,1592
2017-10-28T14:32:24.101Z,1860
2017-10-28T14:33:34.062Z,1740
2017-10-28T14:34:44.360Z,1684
2017-10-28T14:35:53.999Z,1756
2017-10-28T14:37:03.981Z,1712
2017-10-28T14:38:13.968Z,1572
2017-10-28T14:39:24.531Z,1848
2017-10-28T14:40:34.504Z,1752
2017-10-28T14:41:44.812Z,1720
2017-10-28T14:42:54.778Z,1556
2017-10-28T14:44:05.084Z,1208
2017-10-28T14:45:14.981Z,1224
2017-10-28T14:46:24.969Z,1472
2017-10-28T14:47:34.965Z,1520
2017-10-28T14:48:45.273Z,1232
2017-10-28T14:49:55.243Z,1136
2017-10-28T14:51:05.477Z,1028
2017-10-28T14:52:15.785Z,1196
2017-10-28T14:53:25.767Z,1064
2017-10-28T14:54:35.749Z,968
2017-10-28T14:55:46.046Z,796
2017-10-28T14:56:56.286Z,788
2017-10-28T14:58:06.594Z,868
2017-10-28T14:59:16.898Z,936
2017-10-28T15:00:27.227Z,948
2017-10-28T15:01:37.540Z,1008
2017-10-28T15:02:48.135Z,1000
2017-10-28T15:03:58.446Z,972
2017-10-28T15:05:08.439Z,832
2017-10-28T15:06:18.408Z,776
2017-10-28T15:07:28.392Z,764
2017-10-28T15:08:39.007Z,764
2017-10-28T15:09:49.336Z,728
2017-10-28T15:10:59.635Z,932
2017-10-28T15:12:09.629Z,792
2017-10-28T15:13:19.926Z,780
2017-10-28T15:14:30.174Z,804
2017-10-28T15:15:40.157Z,948
2017-10-28T15:16:50.455Z,1020
2017-10-28T15:18:00.746Z,888
2017-10-28T15:19:11.056Z,712
2017-10-28T15:20:21.616Z,604
2017-10-28T15:21:31.976Z,576
2017-10-28T15:22:41.975Z,608
2017-10-28T15:23:52.264Z,676
2017-10-28T15:25:01.918Z,644
2017-10-28T15:26:12.137Z,648
2017-10-28T15:27:22.129Z,528
2017-10-28T15:28:32.475Z,516
2017-10-28T15:29:42.466Z,500
2017-10-28T15:30:52.779Z,444
2017-10-28T15:32:03.338Z,304
2017-10-28T15:33:13.668Z,400
2017-10-28T15:34:23.976Z,380
2017-10-28T15:35:34.266Z,332
2017-10-28T15:36:44.591Z,324
2017-10-28T15:37:55.175Z,312
2017-10-28T15:39:05.146Z,340
2017-10-28T15:40:15.480Z,316
2017-10-28T15:41:25.791Z,248
2017-10-28T15:42:36.094Z,216
2017-10-28T15:43:46.665Z,224
2017-10-28T15:44:56.975Z,196
2017-10-28T15:46:07.291Z,160
2017-10-28T15:47:17.602Z,104
2017-10-28T15:48:27.259Z,112
2017-10-28T15:49:37.496Z,96
2017-10-28T15:50:47.795Z,72
2017-10-28T15:51:57.773Z,52
2017-10-28T15:53:07.765Z,36
2017-10-28T15:54:18.089Z,36
2017-10-28T15:55:28.658Z,36
2017-10-28T15:56:38.622Z,32
2017-10-28T15:57:48.918Z,28
2017-10-28T15:58:58.575Z,28
2017-10-28T16:00:08.882Z,24
2017-10-28T16:01:19.436Z,20
2017-10-28T16:02:29.106Z,16
2017-10-28T16:03:39.074Z,16
2017-10-28T16:04:49.380Z,12
2017-10-28T16:05:59.369Z,8
2017-10-28T16:07:09.966Z,8
2017-10-28T16:08:20.284Z,4
2017-10-28T16:09:30.258Z,4
2017-10-28T16:10:40.228Z,4
2017-10-28T16:11:50.562Z,0
2017-10-28T16:13:00.796Z,0